Time;durP1;ratioP1;P1;durP2;ratioP2;P2;SDS_P1;SDS_P2;PMS_P1;PMS_P2;Temp;Humidity;BMP_temperature;BMP_pressure;BME280_temperature;BME280_humidity;BME280_pressure;Samples;Min_cycle;Max_cycle;Signal;HPM_P1;HPM_P2
2022/01/03 00:09:46;;;;;;;167.38;104.88;;;128.30;2252.80;;;;;;4866424;29;20072;-85
2022/01/03 00:27:07;;;;;;;128.32;72.70;;;103.30;2227.20;;;;;;4879523;29;20128;-84
2022/01/03 00:30:54;;;;;;;148.30;89.85;;;103.20;2227.20;;;;;;4880102;29;20037;-84
2022/01/03 00:34:45;;;;;;;155.93;95.43;;;103.00;2227.20;;;;;;4846660;29;20025;-84
2022/01/03 00:38:54;;;;;;;135.60;83.25;;;103.00;2227.20;;;;;;4809286;29;20526;-85
2022/01/03 00:42:31;;;;;;;93.40;56.67;;;103.00;2073.60;;;;;;4755501;30;20075;-85
2022/01/03 00:46:16;;;;;;;80.07;50.10;;;102.90;2227.20;;;;;;4752220;30;20069;-83
2022/01/03 00:50:18;;;;;;;108.57;63.97;;;102.80;2227.20;;;;;;4723836;30;20117;-84
2022/01/03 00:54:08;;;;;;;128.95;74.88;;;102.80;2227.20;;;;;;4665331;30;20042;-83
2022/01/03 00:57:33;;;;;;;120.53;70.88;;;102.80;2227.20;;;;;;4651379;30;20514;-83
2022/01/03 01:01:48;;;;;;;99.47;57.67;;;102.70;2227.20;;;;;;4655952;30;20045;-84
2022/01/03 01:05:21;;;;;;;68.85;41.53;;;102.70;2227.20;;;;;;4618285;31;20103;-82
2022/01/03 01:08:56;;;;;;;78.10;44.28;;;102.70;2227.20;;;;;;4619190;30;20032;-83
2022/01/03 01:12:33;;;;;;;91.03;51.53;;;102.50;2227.20;;;;;;4635940;30;20183;-82
2022/01/03 01:15:53;;;;;;;125.88;72.55;;;102.60;2227.20;;;;;;4712169;30;20042;-84
2022/01/03 01:19:14;;;;;;;141.70;84.32;;;102.50;2227.20;;;;;;4702863;30;20042;-83
2022/01/03 01:22:50;;;;;;;105.03;62.95;;;102.50;2227.20;;;;;;4723903;30;20048;-83
2022/01/03 01:29:29;;;;;;;186.07;95.32;;;102.50;2227.20;;;;;;4755929;30;20050;-85
2022/01/03 01:32:28;;;;;;;132.18;75.70;;;102.50;2227.20;;;;;;4750071;30;20043;-83
2022/01/03 01:35:50;;;;;;;122.70;72.03;;;102.40;2227.20;;;;;;4719762;30;20045;-82
2022/01/03 01:39:06;;;;;;;144.10;79.28;;;102.50;2227.20;;;;;;4736880;30;20112;-84
2022/01/03 01:42:59;;;;;;;214.10;111.45;;;102.50;2227.20;;;;;;4754635;30;20036;-82
2022/01/03 01:46:39;;;;;;;187.57;105.43;;;102.70;2227.20;;;;;;4753369;30;20033;-83
2022/01/03 01:50:07;;;;;;;159.80;93.55;;;102.70;2227.20;;;;;;4751308;30;20073;-84
2022/01/03 01:53:21;;;;;;;118.70;71.07;;;102.60;2227.20;;;;;;4697964;30;20149;-84
2022/01/03 01:56:59;;;;;;;104.25;64.90;;;102.50;2227.20;;;;;;4733625;30;20115;-83
2022/01/03 02:00:40;;;;;;;109.32;69.00;;;102.60;2227.20;;;;;;4753946;30;20036;-84
2022/01/03 02:04:09;;;;;;;133.25;78.40;;;102.60;2227.20;;;;;;4771717;30;20043;-83
2022/01/03 02:07:51;;;;;;;131.85;78.07;;;102.50;2227.20;;;;;;4742275;30;20032;-83
2022/01/03 02:11:16;;;;;;;132.40;80.20;;;102.50;2227.20;;;;;;4745118;30;20032;-84
2022/01/03 02:21:04;;;;;;;77.63;43.17;;;77.60;2227.20;;;;;;4802571;29;20060;-81
2022/01/03 02:31:24;;;;;;;78.65;43.17;;;77.40;2227.20;;;;;;4842684;29;20151;-82
2022/01/03 02:34:06;;;;;;;86.47;46.40;;;77.40;2227.20;;;;;;4843354;29;20029;-83
2022/01/03 02:40:00;;;;;;;103.10;55.75;;;77.30;2227.20;;;;;;4854514;29;20049;-83
2022/01/03 02:46:23;;;;;;;153.52;82.88;;;77.40;2227.20;;;;;;4864119;29;20036;-82
2022/01/03 02:58:48;;;;;;;77.07;46.25;;;77.50;1945.60;;;;;;4901385;29;20171;-82
2022/01/03 03:01:42;;;;;;;82.15;49.47;;;77.40;2227.20;;;;;;4870879;29;20493;-83
2022/01/03 03:04:51;;;;;;;74.60;42.33;;;77.30;2227.20;;;;;;4871510;29;20029;-83
2022/01/03 03:07:58;;;;;;;78.38;44.75;;;77.30;2227.20;;;;;;4924348;28;20030;-81
2022/01/03 03:11:24;;;;;;;86.85;49.08;;;77.20;2227.20;;;;;;4872804;29;20477;-81
2022/01/03 03:21:20;;;;;;;65.60;35.85;;;77.00;2227.20;;;;;;4981785;28;20070;-81
2022/01/03 03:56:13;;;;;;;74.97;44.70;;;77.10;2227.20;;;;;;4901399;29;20110;-82
2022/01/03 04:02:32;;;;;;;68.00;40.60;;;76.90;2124.80;;;;;;4850305;29;20052;-83
2022/01/03 04:08:29;;;;;;;71.95;40.35;;;52.10;2227.20;;;;;;4841475;29;20037;-83
2022/01/03 04:11:40;;;;;;;66.40;38.90;;;52.10;2227.20;;;;;;4871016;29;20057;-83
2022/01/03 07:12:02;;;;;;;122.88;81.05;;;51.40;2227.20;;;;;;4975054;28;20442;-84
2022/01/03 07:19:47;;;;;;;129.27;83.93;;;51.40;2227.20;;;;;;4976731;28;20129;-83
2022/01/03 07:22:13;;;;;;;130.18;78.47;;;51.40;2227.20;;;;;;4959502;28;20045;-84
2022/01/03 07:24:40;;;;;;;137.40;83.43;;;51.70;2227.20;;;;;;4959347;28;20023;-84
2022/01/03 07:27:09;;;;;;;145.32;90.28;;;51.70;2227.20;;;;;;4959319;28;20019;-84
2022/01/03 07:29:36;;;;;;;138.13;88.30;;;51.90;2227.20;;;;;;4976580;28;20027;-85
2022/01/03 07:32:02;;;;;;;161.93;98.00;;;51.80;2227.20;;;;;;4959242;28;20457;-83
2022/01/03 07:34:28;;;;;;;180.25;126.03;;;52.10;2227.20;;;;;;4958887;28;20177;-84
2022/01/03 07:36:54;;;;;;;119.22;72.38;;;52.10;2227.20;;;;;;4976510;28;20023;-84
2022/01/03 07:39:20;;;;;;;131.25;84.90;;;51.80;2227.20;;;;;;4959288;28;20029;-85
2022/01/03 07:41:46;;;;;;;159.73;101.50;;;51.80;2227.20;;;;;;4958900;28;20019;-83
2022/01/03 07:44:12;;;;;;;128.32;81.40;;;51.90;1971.20;;;;;;4959345;28;20019;-84
2022/01/03 07:46:37;;;;;;;126.78;83.28;;;51.80;2227.20;;;;;;4958890;28;20026;-84
2022/01/03 07:49:04;;;;;;;130.88;82.25;;;51.90;2227.20;;;;;;4959270;28;20027;-84
2022/01/03 07:51:30;;;;;;;159.23;106.38;;;52.10;2227.20;;;;;;4959020;28;20065;-85
2022/01/03 07:53:56;;;;;;;190.35;123.95;;;77.10;1945.60;;;;;;4958886;28;20070;-85
2022/01/03 07:56:22;;;;;;;201.82;130.07;;;77.00;2022.40;;;;;;4958991;28;20454;-83
2022/01/03 07:58:48;;;;;;;213.00;136.10;;;77.20;2227.20;;;;;;4958455;28;20054;-84
2022/01/03 08:01:14;;;;;;;204.35;131.48;;;77.20;2227.20;;;;;;4958843;28;20026;-85
2022/01/03 08:03:40;;;;;;;213.05;133.48;;;77.40;2227.20;;;;;;4958814;28;20447;-85
2022/01/03 08:06:08;;;;;;;216.15;139.98;;;77.60;2227.20;;;;;;4958306;28;20166;-84
2022/01/03 08:08:35;;;;;;;185.77;118.30;;;77.60;2227.20;;;;;;4958512;28;20344;-84
2022/01/03 08:11:01;;;;;;;175.35;109.25;;;77.70;2227.20;;;;;;4958153;28;20185;-84
2022/01/03 08:13:26;;;;;;;171.23;112.85;;;102.40;2227.20;;;;;;4975927;28;20102;-84
2022/01/03 08:15:52;;;;;;;196.50;125.68;;;102.50;2227.20;;;;;;4958689;28;20374;-84
2022/01/03 08:18:18;;;;;;;213.52;137.30;;;102.60;2227.20;;;;;;4958713;28;20026;-84
2022/01/03 08:20:44;;;;;;;186.50;124.53;;;102.60;2227.20;;;;;;4958564;28;20026;-84
2022/01/03 08:23:09;;;;;;;170.45;111.43;;;102.60;2227.20;;;;;;4958166;28;20023;-85
2022/01/03 08:25:38;;;;;;;217.13;137.25;;;102.60;2227.20;;;;;;4958630;28;20070;-83
2022/01/03 08:28:06;;;;;;;163.10;107.13;;;102.70;2227.20;;;;;;4958241;28;20029;-83
2022/01/03 08:30:32;;;;;;;160.00;103.80;;;102.80;2227.20;;;;;;4975228;28;20033;-83
2022/01/03 08:32:58;;;;;;;167.07;103.65;;;102.80;2227.20;;;;;;4958063;28;20109;-83
2022/01/03 08:35:24;;;;;;;166.50;108.88;;;102.90;2227.20;;;;;;4957801;28;20054;-83
2022/01/03 08:37:53;;;;;;;156.10;104.25;;;103.00;2227.20;;;;;;4958053;28;20041;-82
2022/01/03 08:40:19;;;;;;;150.00;100.43;;;103.20;2227.20;;;;;;4958060;28;20026;-83
2022/01/03 08:42:45;;;;;;;160.52;105.00;;;103.10;2227.20;;;;;;4975236;28;20058;-83
2022/01/03 08:45:11;;;;;;;154.40;94.88;;;103.20;2227.20;;;;;;4958219;28;20161;-84
2022/01/03 08:47:37;;;;;;;153.85;103.03;;;103.20;2227.20;;;;;;4974972;28;20078;-83
2022/01/03 08:50:04;;;;;;;154.25;102.88;;;103.30;2227.20;;;;;;4957988;28;20122;-83
2022/01/03 08:52:31;;;;;;;165.48;109.65;;;128.00;2252.80;;;;;;4957600;28;20029;-84
2022/01/03 08:54:57;;;;;;;193.05;131.82;;;128.10;2252.80;;;;;;4975375;28;20046;-82
2022/01/03 08:57:23;;;;;;;183.68;122.43;;;128.10;2252.80;;;;;;4957887;28;20125;-84
2022/01/03 08:59:50;;;;;;;203.68;133.30;;;128.30;2252.80;;;;;;4957967;28;20109;-83
2022/01/03 09:02:16;;;;;;;209.70;135.32;;;128.40;2252.80;;;;;;4958158;28;20022;-83
2022/01/03 09:04:43;;;;;;;206.10;135.82;;;128.60;2252.80;;;;;;4957486;28;20026;-83
2022/01/03 09:07:09;;;;;;;206.30;139.05;;;128.80;2252.80;;;;;;4957824;28;20054;-83
2022/01/03 09:09:35;;;;;;;203.82;129.90;;;128.90;2252.80;;;;;;4957908;28;20134;-84
2022/01/03 09:12:03;;;;;;;188.32;124.47;;;153.60;2252.80;;;;;;4953945;29;20126;-83
2022/01/03 09:14:29;;;;;;;167.50;114.43;;;153.70;2252.80;;;;;;4955742;29;20094;-83
2022/01/03 09:16:55;;;;;;;149.45;104.30;;;153.80;2252.80;;;;;;4956600;28;20348;-83
2022/01/03 09:19:21;;;;;;;168.32;118.72;;;153.90;2252.80;;;;;;4942415;29;20027;-84
2022/01/03 09:21:47;;;;;;;159.55;112.47;;;154.10;2252.80;;;;;;4942717;29;20442;-84
2022/01/03 09:29:28;;;;;;;91.10;60.17;;;154.50;2252.80;;;;;;4959864;29;20379;-82
2022/01/03 09:31:55;;;;;;;90.57;61.85;;;154.50;2252.80;;;;;;4958038;29;20031;-84
2022/01/03 09:34:20;;;;;;;107.90;71.72;;;179.20;2252.80;;;;;;4957946;29;20027;-82
2022/01/03 09:36:46;;;;;;;143.57;92.97;;;179.30;2252.80;;;;;;4942132;29;20046;-82
2022/01/03 09:39:12;;;;;;;142.27;94.72;;;179.40;2252.80;;;;;;4942911;29;20118;-85
2022/01/03 09:41:48;;;;;;;139.10;89.85;;;179.60;2252.80;;;;;;4947439;29;20027;-86
2022/01/03 09:44:14;;;;;;;146.55;98.20;;;179.80;2252.80;;;;;;4956661;29;20034;-87
2022/01/03 09:46:43;;;;;;;144.52;100.18;;;179.90;2252.80;;;;;;4947880;29;20027;-87
2022/01/03 09:49:11;;;;;;;132.85;93.20;;;180.00;2252.80;;;;;;4948528;28;20040;-86
2022/01/03 09:51:39;;;;;;;129.38;91.85;;;204.80;2252.80;;;;;;4978814;28;20023;-86
2022/01/03 09:54:12;;;;;;;132.88;89.88;;;204.90;2252.80;;;;;;4966557;28;20027;-89
2022/01/03 09:56:39;;;;;;;;;;;204.90;2252.80;;;;;;4958378;29;20023;-88
2022/01/03 09:59:06;;;;;;;144.77;93.57;;;205.00;2252.80;;;;;;4958940;29;20397;-88
2022/01/03 10:01:33;;;;;;;151.02;97.93;;;205.20;2252.80;;;;;;4958253;29;20020;-88
2022/01/03 10:04:12;;;;;;;143.10;99.43;;;205.30;2252.80;;;;;;4973840;28;20038;-85
2022/01/03 10:06:38;;;;;;;127.55;92.13;;;205.30;2252.80;;;;;;4947090;29;20121;-86
2022/01/03 10:09:07;;;;;;;139.13;96.35;;;205.40;2252.80;;;;;;4941711;29;20122;-87
2022/01/03 10:11:35;;;;;;;124.25;89.30;;;205.50;2252.80;;;;;;4957660;28;20094;-87
2022/01/03 10:14:01;;;;;;;124.63;90.18;;;205.70;2252.80;;;;;;4957855;29;20468;-87
2022/01/03 10:16:28;;;;;;;118.35;70.75;;;230.40;2252.80;;;;;;4942501;29;20057;-89
2022/01/03 10:18:54;;;;;;;109.88;65.78;;;230.50;2252.80;;;;;;4964312;28;20030;-85
2022/01/03 10:21:39;;;;;;;85.55;59.88;;;230.60;2252.80;;;;;;4941721;29;20111;-88
2022/01/03 10:24:06;;;;;;;62.35;44.30;;;230.70;2252.80;;;;;;4972367;28;20037;-86
2022/01/03 10:26:32;;;;;;;51.10;35.97;;;230.80;2252.80;;;;;;4976732;28;20050;-86
2022/01/03 10:29:35;;;;;;;;;;;;;;;;;;;;;
2022/01/03 10:32:02;;;;;;;56.22;38.95;;;231.00;2252.80;;;;;;4968764;28;20039;-86
2022/01/03 10:34:32;;;;;;;65.50;44.22;;;231.20;2252.80;;;;;;4957340;29;20023;-85
2022/01/03 10:37:49;;;;;;;57.55;42.50;;;231.20;2252.80;;;;;;4957714;29;20175;-87
2022/01/03 10:41:07;;;;;;;43.13;30.92;;;256.20;2252.80;;;;;;4975833;28;20047;-85
2022/01/03 10:47:22;;;;;;;43.00;30.15;;;256.70;2252.80;;;;;;4917830;29;20079;-81
2022/01/03 10:49:47;;;;;;;44.17;32.17;;;256.90;2252.80;;;;;;4901678;29;20028;-79
2022/01/03 10:52:46;;;;;;;39.92;30.33;;;281.70;2278.40;;;;;;4931764;28;20547;-83
2022/01/03 10:55:20;;;;;;;48.25;29.92;;;282.00;2278.40;;;;;;4971177;28;20038;-84
2022/01/03 10:57:53;;;;;;;40.40;24.73;;;282.00;2278.40;;;;;;4972425;28;20030;-83
2022/01/03 11:00:46;;;;;;;46.88;33.83;;;281.90;2278.40;;;;;;4959940;28;20368;-79
2022/01/03 11:03:18;;;;;;;;;;;282.00;2278.40;;;;;;4975792;28;20038;-78
2022/01/03 11:05:50;;;;;;;59.95;39.45;;;282.10;2278.40;;;;;;4977067;28;20299;-83
2022/01/03 11:11:01;;;;;;;92.15;63.78;;;282.10;2278.40;;;;;;4967919;28;20223;-79
2022/01/03 11:13:27;;;;;;;74.60;51.72;;;282.10;2278.40;;;;;;4967556;28;20126;-80
2022/01/03 11:15:56;;;;;;;51.55;36.92;;;282.20;2278.40;;;;;;4978786;28;20462;-79
2022/01/03 11:18:28;;;;;;;82.80;58.42;;;282.40;2278.40;;;;;;4978292;28;20378;-77
2022/01/03 11:21:23;;;;;;;53.15;40.78;;;307.20;2304.00;;;;;;4978195;28;20026;-81
2022/01/03 11:24:13;;;;;;;185.57;131.25;;;307.50;2304.00;;;;;;4958922;28;20031;-82
2022/01/03 11:26:47;;;;;;;85.43;61.72;;;307.60;2304.00;;;;;;4976480;28;20034;-79
2022/01/03 11:29:15;;;;;;;99.65;72.85;;;307.70;2304.00;;;;;;4959138;28;20125;-80
2022/01/03 11:31:42;;;;;;;55.08;38.03;;;308.00;2304.00;;;;;;4975064;28;20402;-81
2022/01/03 11:34:15;;;;;;;79.90;55.53;;;308.00;2304.00;;;;;;4959420;28;20065;-82
2022/01/03 11:37:17;;;;;;;63.28;45.40;;;332.90;2329.60;;;;;;4941458;29;20478;-83
2022/01/03 11:39:48;;;;;;;54.45;41.60;;;332.90;2329.60;;;;;;4873635;28;20505;-83
2022/01/03 11:42:14;;;;;;;44.78;37.03;;;332.90;2329.60;;;;;;4959250;28;20026;-82
2022/01/03 11:45:07;;;;;;;42.85;30.33;;;332.90;2329.60;;;;;;4958190;28;20034;-82
2022/01/03 11:47:45;;;;;;;45.78;34.15;;;333.10;2329.60;;;;;;4959338;28;20037;-85
2022/01/03 11:50:13;;;;;;;53.35;38.97;;;333.20;2329.60;;;;;;4970948;28;20035;-84
2022/01/03 11:52:48;;;;;;;38.88;26.67;;;333.30;2329.60;;;;;;4944085;28;20035;-85
2022/01/03 11:55:56;;;;;;;44.58;31.35;;;333.20;2329.60;;;;;;4955863;29;20058;-86
2022/01/03 12:04:02;;;;;;;47.53;38.78;;;333.60;2329.60;;;;;;4970832;28;20509;-81
2022/01/03 12:06:33;;;;;;;46.35;32.45;;;358.40;2329.60;;;;;;4980136;28;20007;-81
2022/01/03 12:11:56;;;;;;;40.65;30.63;;;358.40;2329.60;;;;;;4896031;29;20162;-83
2022/01/03 12:15:14;;;;;;;41.30;30.25;;;358.40;2329.60;;;;;;4948149;29;20035;-84
2022/01/03 12:17:46;;;;;;;31.35;18.08;;;333.60;2329.60;;;;;;4886069;29;20027;-82
2022/01/03 12:20:12;;;;;;;25.67;15.97;;;333.60;2329.60;;;;;;4935553;29;20027;-83
2022/01/03 12:22:48;;;;;;;34.05;22.13;;;333.60;2329.60;;;;;;4937057;29;20055;-83
2022/01/03 12:25:25;;;;;;;21.45;13.32;;;333.60;2329.60;;;;;;4955689;28;20023;-81
2022/01/03 12:27:56;;;;;;;24.80;17.52;;;333.40;2329.60;;;;;;4955236;29;20412;-80
2022/01/03 12:30:25;;;;;;;22.08;16.60;;;333.40;2329.60;;;;;;4956601;28;20117;-80
2022/01/03 12:33:06;;;;;;;20.52;15.20;;;333.40;2329.60;;;;;;4973959;28;20529;-82
2022/01/03 12:35:43;;;;;;;28.30;17.45;;;333.40;2329.60;;;;;;4973559;28;20030;-83
2022/01/03 12:38:13;;;;;;;40.30;29.95;;;333.40;2329.60;;;;;;4974161;28;20049;-83
2022/01/03 12:40:45;;;;;;;35.08;26.10;;;333.40;2329.60;;;;;;4974237;28;20038;-82
2022/01/03 12:43:19;;;;;;;35.10;26.52;;;333.40;2329.60;;;;;;4974220;28;20447;-79
2022/01/03 12:46:00;;;;;;;32.30;25.30;;;333.40;2329.60;;;;;;4973789;28;20053;-83
2022/01/03 12:48:31;;;;;;;44.20;24.27;;;333.50;2329.60;;;;;;4956209;28;20023;-80
2022/01/03 12:51:03;;;;;;;26.08;19.38;;;333.50;2329.60;;;;;;4952846;29;20054;-82
2022/01/03 12:53:32;;;;;;;48.67;33.03;;;333.60;2329.60;;;;;;4954402;29;20019;-80
2022/01/03 12:56:00;;;;;;;51.25;31.70;;;333.60;2329.60;;;;;;4955672;29;20030;-84
2022/01/03 12:58:48;;;;;;;54.90;37.55;;;333.70;2329.60;;;;;;4938605;29;20034;-84
2022/01/03 13:01:27;;;;;;;63.45;45.65;;;358.40;2329.60;;;;;;4954471;29;20438;-83
2022/01/03 13:11:23;;;;;;;45.00;34.78;;;358.70;2329.60;;;;;;4896355;29;20036;-83
2022/01/03 13:14:25;;;;;;;;;;;;;;;;;;;;;
2022/01/03 13:16:56;;;;;;;50.33;36.10;;;358.70;2329.60;;;;;;4896439;29;20021;-84
2022/01/03 13:19:40;;;;;;;50.55;37.35;;;358.60;2329.60;;;;;;4881329;29;20068;-84
2022/01/03 13:22:12;;;;;;;60.15;41.30;;;358.50;2329.60;;;;;;4881035;29;20028;-84
2022/01/03 13:24:43;;;;;;;54.85;39.35;;;358.40;2329.60;;;;;;4900201;29;20139;-85
2022/01/03 13:27:10;;;;;;;63.45;38.80;;;358.40;2329.60;;;;;;4954804;29;20034;-85
2022/01/03 13:29:45;;;;;;;81.57;49.03;;;358.40;2329.60;;;;;;4954629;29;20418;-84
2022/01/03 13:32:26;;;;;;;84.30;58.80;;;333.70;2329.60;;;;;;4938764;29;20035;-83
2022/01/03 13:34:53;;;;;;;124.50;74.32;;;333.70;2329.60;;;;;;4954898;29;20020;-84
2022/01/03 13:37:22;;;;;;;127.80;77.28;;;333.70;2329.60;;;;;;4954720;29;20023;-84
2022/01/03 13:39:50;;;;;;;148.95;82.70;;;333.60;2329.60;;;;;;4938691;29;20082;-83
2022/01/03 13:50:43;;;;;;;91.20;49.80;;;333.40;2329.60;;;;;;4955064;29;20034;-83
2022/01/03 13:53:11;;;;;;;77.90;44.88;;;333.40;2329.60;;;;;;4953873;29;20027;-83
2022/01/03 13:55:37;;;;;;;57.47;37.00;;;333.30;2329.60;;;;;;4954119;29;20356;-86
2022/01/03 13:58:12;;;;;;;75.25;43.45;;;333.30;2329.60;;;;;;4954367;29;20034;-84
2022/01/03 14:00:45;;;;;;;40.08;24.13;;;333.20;2329.60;;;;;;4954132;29;20494;-85
2022/01/03 14:03:15;;;;;;;41.53;22.90;;;333.10;2329.60;;;;;;4939041;29;20026;-85
2022/01/03 14:05:42;;;;;;;39.13;24.30;;;333.10;2329.60;;;;;;4957730;29;20118;-86
2022/01/03 14:08:08;;;;;;;71.18;31.75;;;333.00;2329.60;;;;;;4957374;29;20027;-84
2022/01/03 14:10:36;;;;;;;86.53;36.47;;;332.90;2329.60;;;;;;4958638;29;20098;-87
2022/01/03 14:13:04;;;;;;;67.82;35.08;;;332.90;2329.60;;;;;;4957674;29;20065;-87
2022/01/03 14:15:31;;;;;;;116.25;66.63;;;308.10;2304.00;;;;;;4957482;29;20047;-86
2022/01/03 14:17:57;;;;;;;299.92;162.27;;;308.10;2304.00;;;;;;4957471;29;20031;-86
2022/01/03 14:20:23;;;;;;;277.15;160.50;;;308.10;2304.00;;;;;;4957292;29;20027;-84
2022/01/03 14:22:49;;;;;;;224.63;126.40;;;308.10;2304.00;;;;;;4957523;29;20166;-85
2022/01/03 14:25:17;;;;;;;203.57;122.55;;;308.10;2304.00;;;;;;4947534;29;20031;-84
2022/01/03 14:28:03;;;;;;;168.57;105.75;;;307.90;2304.00;;;;;;4938081;29;20023;-83
2022/01/03 14:30:36;;;;;;;100.40;63.03;;;307.80;2304.00;;;;;;4951627;28;20062;-84
2022/01/03 14:33:05;;;;;;;78.30;51.05;;;307.70;2304.00;;;;;;4975686;28;20030;-84
2022/01/03 14:35:33;;;;;;;56.90;40.20;;;307.70;2304.00;;;;;;4975996;28;20092;-84
2022/01/03 14:38:12;;;;;;;51.83;32.35;;;307.60;2304.00;;;;;;4937479;29;20020;-84
2022/01/03 14:40:40;;;;;;;63.92;41.42;;;307.50;2304.00;;;;;;4936992;29;20031;-85
2022/01/03 14:43:06;;;;;;;67.15;41.78;;;307.50;2304.00;;;;;;4921686;29;20036;-84
2022/01/03 14:45:33;;;;;;;71.00;45.13;;;307.40;2304.00;;;;;;4939008;29;20077;-84
2022/01/03 14:48:02;;;;;;;131.35;73.55;;;307.30;2304.00;;;;;;4938683;29;20024;-84
2022/01/03 14:50:29;;;;;;;127.88;71.57;;;307.20;2304.00;;;;;;4937667;29;20028;-86
2022/01/03 14:53:00;;;;;;;88.97;57.40;;;282.50;2278.40;;;;;;4922345;29;20059;-87
2022/01/03 14:55:39;;;;;;;57.20;39.15;;;282.50;2278.40;;;;;;4939507;29;20159;-87
2022/01/03 14:58:06;;;;;;;60.95;40.60;;;282.40;2278.40;;;;;;4939191;29;20035;-85
2022/01/03 15:00:34;;;;;;;82.20;57.40;;;282.30;2278.40;;;;;;4937812;29;20028;-87
2022/01/03 15:03:00;;;;;;;130.75;91.15;;;282.20;2278.40;;;;;;4937735;29;20023;-86
2022/01/03 15:05:27;;;;;;;163.20;109.15;;;282.10;2278.40;;;;;;4937731;29;20023;-85
2022/01/03 15:07:55;;;;;;;177.00;118.82;;;282.10;2278.40;;;;;;4938144;29;20027;-86
2022/01/03 15:10:21;;;;;;;138.20;97.43;;;282.00;2278.40;;;;;;4950813;28;20023;-86
2022/01/03 15:12:55;;;;;;;147.80;103.05;;;282.00;2278.40;;;;;;4961016;28;20064;-85
2022/01/03 15:15:46;;;;;;;244.75;163.15;;;281.90;2278.40;;;;;;4957933;28;20411;-85
2022/01/03 15:18:12;;;;;;;291.83;204.32;;;281.80;2278.40;;;;;;4957380;29;20023;-84
2022/01/03 15:20:37;;;;;;;330.80;237.27;;;281.70;2278.40;;;;;;4958295;29;20367;-88
2022/01/03 15:23:03;;;;;;;372.95;268.73;;;281.70;2278.40;;;;;;4956857;29;20090;-85
2022/01/03 15:25:30;;;;;;;396.42;285.25;;;281.70;2278.40;;;;;;4956646;29;20019;-83
2022/01/03 15:27:58;;;;;;;366.35;267.17;;;281.70;2278.40;;;;;;4956805;29;20020;-85
2022/01/03 15:30:37;;;;;;;341.08;243.15;;;281.60;2278.40;;;;;;4956505;29;20371;-84
2022/01/03 15:33:02;;;;;;;261.45;183.23;;;281.60;2278.40;;;;;;4956052;29;20061;-86
2022/01/03 15:35:28;;;;;;;248.63;170.15;;;281.60;2278.40;;;;;;4956231;29;20087;-85
2022/01/03 15:37:54;;;;;;;217.77;141.23;;;256.90;2252.80;;;;;;4956148;29;20034;-85
2022/01/03 15:40:20;;;;;;;170.57;115.88;;;256.90;2252.80;;;;;;4939895;29;20062;-80
2022/01/03 15:42:46;;;;;;;217.68;150.43;;;256.80;2252.80;;;;;;4956058;29;20027;-81
2022/01/03 15:45:11;;;;;;;215.82;148.43;;;256.80;2252.80;;;;;;4955734;29;20456;-81
2022/01/03 15:47:37;;;;;;;174.88;120.45;;;256.80;2252.80;;;;;;4955591;29;20026;-83
2022/01/03 15:50:05;;;;;;;134.18;93.35;;;256.80;2252.80;;;;;;4957329;29;20459;-84
2022/01/03 15:52:31;;;;;;;139.07;95.35;;;256.90;2252.80;;;;;;4956967;29;20030;-82
2022/01/03 15:54:57;;;;;;;115.25;77.93;;;256.90;2252.80;;;;;;4955692;29;20023;-85
2022/01/03 15:57:23;;;;;;;155.23;97.20;;;256.90;2252.80;;;;;;4939786;29;20086;-86
2022/01/03 15:59:48;;;;;;;226.32;140.10;;;256.90;2252.80;;;;;;4957080;29;20030;-83
2022/01/03 16:02:14;;;;;;;329.90;201.25;;;256.90;2252.80;;;;;;4955516;29;20023;-83
2022/01/03 16:04:40;;;;;;;283.23;168.52;;;256.90;2252.80;;;;;;4955665;29;20023;-84
2022/01/03 16:07:06;;;;;;;270.08;166.48;;;256.80;2252.80;;;;;;4939547;29;20110;-81
2022/01/03 16:09:31;;;;;;;191.20;115.30;;;256.70;2252.80;;;;;;4955768;29;20050;-84
2022/01/03 16:11:57;;;;;;;132.98;84.10;;;256.50;2252.80;;;;;;4939324;29;20070;-85
2022/01/03 16:14:23;;;;;;;128.40;82.35;;;256.40;2252.80;;;;;;4955459;29;20034;-83
2022/01/03 16:16:49;;;;;;;150.55;98.72;;;256.30;2252.80;;;;;;4956727;29;20015;-83
2022/01/03 16:19:16;;;;;;;78.63;53.83;;;256.20;2252.80;;;;;;4955313;29;20034;-82
2022/01/03 16:21:44;;;;;;;278.33;186.07;;;256.20;2252.80;;;;;;4955403;29;20110;-86
2022/01/03 16:24:10;;;;;;;247.25;165.38;;;256.20;2252.80;;;;;;4955298;29;20023;-83
2022/01/03 16:26:36;;;;;;;285.40;193.45;;;256.20;2252.80;;;;;;4954956;28;20059;-85
2022/01/03 16:29:13;;;;;;;316.48;219.68;;;256.10;2252.80;;;;;;4954900;29;20023;-84
2022/01/03 16:31:41;;;;;;;343.00;230.73;;;256.10;2252.80;;;;;;4955960;29;20114;-87
2022/01/03 16:34:08;;;;;;;386.58;258.50;;;231.30;2252.80;;;;;;4955287;29;20486;-85
2022/01/03 16:36:34;;;;;;;398.35;271.55;;;231.20;2252.80;;;;;;4955246;29;20105;-83
2022/01/03 16:39:01;;;;;;;374.85;261.15;;;231.20;2252.80;;;;;;4955227;29;20147;-86
2022/01/03 16:41:28;;;;;;;406.27;284.65;;;231.20;2252.80;;;;;;4955315;29;20027;-84
2022/01/03 16:43:54;;;;;;;390.00;267.88;;;231.10;2252.80;;;;;;4955323;29;20024;-85
2022/01/03 16:46:20;;;;;;;403.02;280.70;;;231.10;2252.80;;;;;;4955145;29;20023;-82
2022/01/03 16:48:47;;;;;;;364.27;251.98;;;231.10;2252.80;;;;;;4955014;29;20023;-83
2022/01/03 16:51:13;;;;;;;372.55;251.00;;;231.00;2252.80;;;;;;4956033;29;20131;-83
2022/01/03 16:53:39;;;;;;;304.83;209.98;;;231.00;2252.80;;;;;;4954969;29;20390;-85
2022/01/03 16:56:07;;;;;;;251.65;167.90;;;230.90;2252.80;;;;;;4954760;29;20031;-81
2022/01/03 16:58:37;;;;;;;241.85;161.15;;;230.80;2252.80;;;;;;4954740;29;20058;-84
2022/01/03 17:01:04;;;;;;;212.32;145.90;;;230.90;2252.80;;;;;;4954695;29;20031;-83
2022/01/03 17:03:29;;;;;;;242.98;160.63;;;230.90;2252.80;;;;;;4954455;29;20016;-83
2022/01/03 17:05:55;;;;;;;253.15;175.10;;;230.80;2252.80;;;;;;4938977;29;20034;-85
2022/01/03 17:08:21;;;;;;;235.35;161.05;;;230.80;2252.80;;;;;;4955086;29;20023;-85
2022/01/03 17:10:49;;;;;;;287.92;184.77;;;230.70;2252.80;;;;;;4954733;29;20054;-84
2022/01/03 17:13:15;;;;;;;303.52;200.38;;;230.70;2252.80;;;;;;4954540;29;20051;-86
2022/01/03 17:15:41;;;;;;;327.90;226.18;;;230.70;2252.80;;;;;;4954813;29;20121;-83
2022/01/03 17:18:08;;;;;;;361.38;244.07;;;230.60;2252.80;;;;;;4954875;29;20061;-86
2022/01/03 17:20:35;;;;;;;349.70;233.30;;;230.60;2252.80;;;;;;4954908;29;20027;-84
2022/01/03 17:23:02;;;;;;;284.33;198.10;;;230.70;2252.80;;;;;;4954825;29;20023;-87
2022/01/03 17:25:31;;;;;;;337.85;235.57;;;230.50;2252.80;;;;;;4954706;29;20126;-85
2022/01/03 17:27:57;;;;;;;345.38;233.90;;;230.50;2252.80;;;;;;4955119;29;20371;-87
2022/01/03 17:30:23;;;;;;;460.17;325.88;;;230.50;2252.80;;;;;;4956226;29;20042;-85
2022/01/03 17:39:53;;;;;;;482.65;337.38;;;230.40;2252.80;;;;;;4918866;29;20055;-82
2022/01/03 17:42:24;;;;;;;574.90;357.63;;;230.40;2252.80;;;;;;4918649;29;20052;-82
2022/01/03 17:44:55;;;;;;;522.83;372.27;;;230.40;2252.80;;;;;;4902609;29;20480;-82
2022/01/03 17:48:33;;;;;;;515.47;368.52;;;205.70;2252.80;;;;;;4902481;29;20020;-82
2022/01/03 17:50:34;;;;;;;545.27;385.13;;;205.60;2252.80;;;;;;4930967;29;20038;-85
2022/01/03 17:53:05;;;;;;;561.90;415.13;;;205.60;2252.80;;;;;;4957672;29;20122;-85
2022/01/03 17:55:36;;;;;;;510.55;366.73;;;205.50;2252.80;;;;;;4957905;29;20027;-83
2022/01/03 17:58:03;;;;;;;617.05;429.35;;;205.60;2252.80;;;;;;4958024;29;20073;-83
2022/01/03 18:00:29;;;;;;;574.55;395.10;;;205.70;2252.80;;;;;;4958788;29;20468;-85
2022/01/03 18:02:55;;;;;;;493.38;343.95;;;205.70;2252.80;;;;;;4957702;29;20058;-83
2022/01/03 18:05:22;;;;;;;342.75;235.77;;;205.70;2252.80;;;;;;4941850;29;20026;-87
2022/01/03 18:07:48;;;;;;;489.60;346.20;;;205.60;2252.80;;;;;;4959141;29;20583;-85
2022/01/03 18:10:14;;;;;;;477.90;345.83;;;205.60;2252.80;;;;;;4958021;29;20118;-84
2022/01/03 18:12:47;;;;;;;485.85;358.25;;;205.60;2252.80;;;;;;4957360;29;20495;-86
2022/01/03 18:15:13;;;;;;;472.75;340.48;;;205.60;2252.80;;;;;;4958781;29;20460;-86